createdAt,value
2019-05-14T00:02:58.286Z,10.40
2019-05-14T00:06:22.070Z,11.27
2019-05-14T00:09:45.836Z,12.33
2019-05-14T00:13:11.881Z,9.93
2019-05-14T00:16:35.378Z,9.23
2019-05-14T00:20:07.196Z,9.27
2019-05-14T00:23:24.623Z,8.33
2019-05-14T00:26:48.457Z,8.60
2019-05-14T00:30:12.671Z,8.23
2019-05-14T00:33:36.444Z,8.33
2019-05-14T00:37:01.529Z,8.70
2019-05-14T00:40:25.657Z,8.57
2019-05-14T00:43:51.411Z,9.47
2019-05-14T00:47:14.948Z,9.57
2019-05-14T00:50:38.683Z,9.80
2019-05-14T00:54:02.604Z,10.77
2019-05-14T00:57:26.358Z,10.37
2019-05-14T01:00:52.268Z,10.53
2019-05-14T01:04:15.563Z,11.40
2019-05-14T01:07:39.430Z,11.03
2019-05-14T01:11:03.235Z,11.43
2019-05-14T01:14:27.157Z,13.20
2019-05-14T01:17:51.538Z,13.53
2019-05-14T01:21:15.688Z,13.80
2019-05-14T01:24:41.428Z,12.70
2019-05-14T01:28:05.103Z,17.13
2019-05-14T01:31:31.310Z,12.80
2019-05-14T01:34:54.507Z,12.17
2019-05-14T01:38:18.231Z,12.13
2019-05-14T01:41:42.523Z,11.47
2019-05-14T01:45:06.676Z,12.17
2019-05-14T01:48:31.316Z,12.17
2019-05-14T01:51:55.485Z,38.93
2019-05-14T01:55:21.759Z,14.23
2019-05-14T01:58:44.791Z,12.37
2019-05-14T02:02:08.632Z,12.50
2019-05-14T02:05:32.513Z,12.07
2019-05-14T02:08:56.260Z,19.90
2019-05-14T02:12:22.435Z,14.60
2019-05-14T02:15:46.076Z,12.93
2019-05-14T02:19:11.560Z,15.27
2019-05-14T02:22:35.485Z,17.23
2019-05-14T02:25:59.230Z,15.77
2019-05-14T02:29:23.103Z,16.33
2019-05-14T02:32:49.830Z,17.43
2019-05-14T02:36:12.491Z,18.63
2019-05-14T02:39:36.252Z,15.57
2019-05-14T02:43:00.052Z,15.40
2019-05-14T02:46:23.849Z,18.17
2019-05-14T02:49:50.146Z,16.97
2019-05-14T02:53:13.309Z,18.47
2019-05-14T02:56:39.984Z,17.07
2019-05-14T03:00:02.558Z,17.03
2019-05-14T03:03:29.631Z,17.83
2019-05-14T03:06:51.958Z,17.20
2019-05-14T03:10:19.182Z,16.97
2019-05-14T03:13:41.784Z,16.73
2019-05-14T03:17:05.587Z,16.17
2019-05-14T03:20:29.515Z,17.07
2019-05-14T03:23:53.367Z,18.07
2019-05-14T03:27:19.399Z,18.00
2019-05-14T03:30:43.128Z,16.80
2019-05-14T03:34:12.686Z,21.03
2019-05-14T03:37:32.755Z,15.27
2019-05-14T03:41:00.181Z,15.37
2019-05-14T03:44:23.156Z,25.07
2019-05-14T03:47:50.120Z,18.53
2019-05-14T03:51:12.650Z,18.97
2019-05-14T03:54:36.550Z,15.37
2019-05-14T03:58:00.322Z,15.43
2019-05-14T04:01:24.517Z,14.43
2019-05-14T04:04:50.077Z,15.57
2019-05-14T04:08:15.759Z,13.47
2019-05-14T04:11:42.637Z,11.73
2019-05-14T04:15:09.577Z,9.57
2019-05-14T04:18:40.534Z,9.23
2019-05-14T04:22:05.372Z,7.87
2019-05-14T04:25:30.690Z,6.30
2019-05-14T04:29:00.423Z,7.60
2019-05-14T04:32:23.020Z,7.07
2019-05-14T04:35:49.032Z,7.13
2019-05-14T04:39:12.650Z,7.90
2019-05-14T04:42:39.917Z,7.20
2019-05-14T04:46:02.304Z,6.57
2019-05-14T04:49:29.048Z,5.67
2019-05-14T04:52:51.956Z,5.67
2019-05-14T04:56:15.794Z,6.03
2019-05-14T04:59:40.091Z,5.70
2019-05-14T05:03:08.229Z,8.33
2019-05-14T05:06:29.588Z,5.30
2019-05-14T05:09:53.679Z,5.23
2019-05-14T05:13:18.431Z,5.00
2019-05-14T05:16:42.556Z,7.73
2019-05-14T05:20:09.838Z,4.87
2019-05-14T05:23:32.870Z,6.60
2019-05-14T05:26:58.509Z,5.10
2019-05-14T05:30:22.313Z,5.40
2019-05-14T05:33:48.745Z,7.33
2019-05-14T05:37:11.893Z,7.17
2019-05-14T05:40:35.788Z,7.80
2019-05-14T05:43:59.782Z,8.87
2019-05-14T05:47:23.519Z,5.47
2019-05-14T05:50:48.501Z,5.23
2019-05-14T05:54:12.663Z,12.60
2019-05-14T05:57:39.218Z,7.40
2019-05-14T06:01:03.341Z,6.73
2019-05-14T06:04:28.983Z,5.30
2019-05-14T06:07:53.953Z,5.10
2019-05-14T06:11:19.323Z,4.93
2019-05-14T06:14:44.146Z,5.50
2019-05-14T06:18:15.252Z,6.03
2019-05-14T06:21:34.767Z,4.83
2019-05-14T06:24:59.870Z,5.03
2019-05-14T06:28:28.177Z,4.40
2019-05-14T06:31:50.868Z,4.97
2019-05-14T06:35:15.095Z,5.30
2019-05-14T06:38:39.470Z,4.67
2019-05-14T06:42:03.568Z,5.27
2019-05-14T06:45:29.182Z,5.63
2019-05-14T06:48:53.945Z,6.30
2019-05-14T06:52:18.720Z,6.27
2019-05-14T06:55:43.020Z,5.80
2019-05-14T06:59:09.071Z,7.47
2019-05-14T07:02:33.381Z,6.20
2019-05-14T07:05:59.360Z,5.03
2019-05-14T07:09:23.307Z,6.00
2019-05-14T07:12:49.862Z,5.57
2019-05-14T07:16:13.573Z,5.97
2019-05-14T07:19:38.505Z,7.90
2019-05-14T07:23:02.785Z,6.73
2019-05-14T07:26:29.831Z,5.67
2019-05-14T07:29:53.782Z,5.23
2019-05-14T07:33:18.348Z,4.10
2019-05-14T07:36:42.726Z,3.67
2019-05-14T07:40:08.565Z,3.77
2019-05-14T07:43:32.648Z,3.97
2019-05-14T07:46:58.827Z,4.13
2019-05-14T07:50:22.252Z,3.90
2019-05-14T07:53:48.528Z,4.60
2019-05-14T07:57:11.673Z,7.60
2019-05-14T08:00:35.573Z,5.70
2019-05-14T08:04:00.178Z,5.53
2019-05-14T08:07:24.246Z,11.67
2019-05-14T08:10:48.668Z,9.00
2019-05-14T08:14:12.629Z,5.80
2019-05-14T08:17:38.633Z,4.50
2019-05-14T08:21:02.135Z,4.17
2019-05-14T08:24:27.120Z,5.10
2019-05-14T08:27:51.596Z,4.07
2019-05-14T08:31:15.450Z,4.20
2019-05-14T08:34:39.464Z,3.87
2019-05-14T08:38:08.134Z,4.13
2019-05-14T08:41:29.008Z,4.30
2019-05-14T08:44:52.957Z,8.43
2019-05-14T08:48:19.009Z,3.80
2019-05-14T08:51:43.069Z,4.93
2019-05-14T08:55:11.126Z,4.53
2019-05-14T08:58:33.526Z,7.17
2019-05-14T09:02:05.542Z,4.87
2019-05-14T09:05:22.725Z,4.20
2019-05-14T09:08:46.430Z,4.57
2019-05-14T09:12:12.606Z,3.83
2019-05-14T09:15:38.322Z,3.40
2019-05-14T09:19:01.589Z,3.47
2019-05-14T09:22:25.571Z,3.57
2019-05-14T09:25:53.202Z,4.00
2019-05-14T09:29:25.044Z,3.80
2019-05-14T09:32:40.734Z,3.77
2019-05-14T09:36:14.761Z,4.27
2019-05-14T09:39:29.946Z,3.97
2019-05-14T09:42:53.904Z,3.40
2019-05-14T09:46:18.542Z,3.80
2019-05-14T09:49:42.792Z,7.40
2019-05-14T09:53:09.475Z,5.67
2019-05-14T09:56:31.906Z,4.57
2019-05-14T09:59:55.740Z,5.00
2019-05-14T10:03:19.638Z,6.63
2019-05-14T10:06:43.518Z,6.20
2019-05-14T10:10:08.301Z,6.33
2019-05-14T10:13:32.183Z,4.40
2019-05-14T10:16:58.162Z,4.73
2019-05-14T10:20:36.562Z,4.50
2019-05-14T10:23:48.481Z,3.60
2019-05-14T10:27:12.403Z,3.97
2019-05-14T10:30:36.120Z,3.50
2019-05-14T10:33:59.942Z,5.20
2019-05-14T10:37:23.850Z,3.93
2019-05-14T10:40:47.637Z,4.40
2019-05-14T10:44:11.402Z,9.67
2019-05-14T10:47:35.432Z,4.27
2019-05-14T10:51:03.370Z,5.10
2019-05-14T10:54:26.024Z,4.70
2019-05-14T10:57:54.169Z,7.50
2019-05-14T11:01:20.672Z,6.30
2019-05-14T11:04:41.955Z,3.93
2019-05-14T11:08:05.874Z,17.63
2019-05-14T11:11:29.596Z,5.63
2019-05-14T11:14:53.485Z,6.03
2019-05-14T11:18:19.851Z,5.53
2019-05-14T11:21:42.828Z,5.77
2019-05-14T11:25:09.169Z,5.93
2019-05-14T11:28:33.412Z,4.00
2019-05-14T11:31:57.228Z,23.33
2019-05-14T11:35:21.006Z,5.47
2019-05-14T11:38:44.882Z,3.90
2019-05-14T11:42:09.265Z,4.47
2019-05-14T11:45:33.594Z,3.90
2019-05-14T11:48:59.406Z,3.77
2019-05-14T11:52:23.436Z,3.97
2019-05-14T11:55:50.257Z,5.83
2019-05-14T11:59:13.818Z,6.53
2019-05-14T12:02:38.488Z,7.83
2019-05-14T12:06:03.015Z,12.67
2019-05-14T12:09:28.398Z,32.53
2019-05-14T12:12:52.835Z,122.30
2019-05-14T12:16:17.937Z,72.30
2019-05-14T12:19:43.799Z,30.77
2019-05-14T12:23:08.887Z,37.73
2019-05-14T12:26:34.524Z,42.10
2019-05-14T12:29:59.904Z,22.87
2019-05-14T12:33:24.399Z,23.20
2019-05-14T12:36:49.276Z,8.30
2019-05-14T12:40:13.846Z,32.70
2019-05-14T12:43:39.617Z,30.20
2019-05-14T12:47:04.295Z,43.77
2019-05-14T12:50:28.045Z,9.87
2019-05-14T12:53:52.407Z,23.03
2019-05-14T12:57:18.815Z,9.43
2019-05-14T13:00:42.520Z,7.33
2019-05-14T13:04:08.483Z,8.33
2019-05-14T13:07:32.120Z,9.83
2019-05-14T13:10:58.607Z,11.67
2019-05-14T13:14:23.459Z,6.30
2019-05-14T13:17:48.456Z,5.73
2019-05-14T13:21:12.869Z,38.93
2019-05-14T13:24:39.461Z,53.63
2019-05-14T13:28:02.333Z,19.90
2019-05-14T13:31:28.999Z,10.50
2019-05-14T13:34:51.831Z,8.73
2019-05-14T13:38:15.604Z,12.23
2019-05-14T13:41:41.867Z,11.30
2019-05-14T13:45:10.354Z,8.23
2019-05-14T13:48:38.572Z,6.20
2019-05-14T13:51:59.922Z,7.90
2019-05-14T13:55:26.598Z,15.23
2019-05-14T13:58:49.552Z,6.63
2019-05-14T14:02:13.561Z,6.90
2019-05-14T14:05:39.211Z,7.07
2019-05-14T14:09:03.477Z,10.43
2019-05-14T14:12:31.671Z,9.87
2019-05-14T14:15:53.092Z,8.13
2019-05-14T14:19:18.764Z,9.13
2019-05-14T14:22:42.700Z,7.97
2019-05-14T14:26:09.166Z,11.77
2019-05-14T14:29:32.523Z,10.67
2019-05-14T14:32:58.707Z,5.90
2019-05-14T14:36:22.378Z,7.30
2019-05-14T14:39:48.730Z,9.03
2019-05-14T14:43:12.314Z,7.90
2019-05-14T14:46:36.388Z,7.63
2019-05-14T14:50:00.647Z,5.63
2019-05-14T14:53:41.448Z,5.47
2019-05-14T14:56:51.421Z,5.63
2019-05-14T15:00:15.799Z,5.10
2019-05-14T15:03:39.656Z,5.63
2019-05-14T15:07:03.854Z,7.83
2019-05-14T15:10:28.398Z,10.73
2019-05-14T15:13:52.569Z,5.83
2019-05-14T15:17:18.544Z,7.67
2019-05-14T15:20:42.001Z,6.13
2019-05-14T15:24:14.521Z,5.80
2019-05-14T15:27:31.927Z,5.30
2019-05-14T15:30:55.750Z,4.57
2019-05-14T15:34:19.716Z,5.73
2019-05-14T15:37:43.722Z,14.97
2019-05-14T15:41:09.400Z,17.37
2019-05-14T15:44:47.385Z,9.43
2019-05-14T15:48:03.536Z,19.03
2019-05-14T15:51:24.465Z,17.77
2019-05-14T15:54:50.610Z,8.27
2019-05-14T15:58:13.699Z,8.27
2019-05-14T16:01:39.603Z,6.63
2019-05-14T16:05:03.044Z,6.40
2019-05-14T16:08:29.446Z,6.50
2019-05-14T16:11:52.276Z,6.23
2019-05-14T16:15:18.728Z,9.53
2019-05-14T16:18:42.012Z,6.10
2019-05-14T16:22:05.853Z,14.93
2019-05-14T16:25:29.654Z,16.10
2019-05-14T16:28:59.249Z,14.07
2019-05-14T16:32:21.858Z,57.57
2019-05-14T16:35:45.681Z,14.63
2019-05-14T16:39:11.899Z,9.17
2019-05-14T16:42:35.806Z,7.17
2019-05-14T16:45:59.839Z,16.40
2019-05-14T16:49:23.885Z,10.53
2019-05-14T16:52:49.381Z,6.30
2019-05-14T16:56:13.463Z,7.03
2019-05-14T16:59:39.548Z,29.43
2019-05-14T17:03:03.385Z,15.60
2019-05-14T17:06:29.230Z,6.67
2019-05-14T17:09:52.803Z,8.93
2019-05-14T17:13:17.925Z,12.27
2019-05-14T17:16:42.437Z,12.80
2019-05-14T17:20:08.563Z,9.63
2019-05-14T17:23:32.872Z,7.60
2019-05-14T17:26:58.288Z,8.10
2019-05-14T17:30:22.575Z,10.00
2019-05-14T17:33:49.024Z,10.67
2019-05-14T17:37:12.082Z,10.03
2019-05-14T17:40:39.439Z,7.40
2019-05-14T17:44:02.011Z,15.07
2019-05-14T17:47:28.853Z,7.57
2019-05-14T17:50:51.942Z,12.43
2019-05-14T17:54:18.530Z,20.23
2019-05-14T17:57:48.882Z,12.13
2019-05-14T18:01:11.302Z,6.57
2019-05-14T18:04:35.665Z,8.27
2019-05-14T18:07:59.912Z,9.77
2019-05-14T18:11:23.762Z,11.93
2019-05-14T18:14:48.225Z,12.17
2019-05-14T18:18:12.386Z,11.63
2019-05-14T18:21:38.822Z,9.23
2019-05-14T18:25:02.883Z,11.97
2019-05-14T18:28:28.800Z,8.90
2019-05-14T18:31:54.609Z,12.90
2019-05-14T18:35:18.944Z,15.63
2019-05-14T18:38:43.159Z,10.70
2019-05-14T18:42:08.640Z,8.80
2019-05-14T18:45:32.975Z,10.43
2019-05-14T18:48:59.208Z,11.70
2019-05-14T18:52:23.103Z,12.80
2019-05-14T18:55:49.949Z,12.00
2019-05-14T18:59:13.854Z,13.93
2019-05-14T19:02:39.276Z,10.90
2019-05-14T19:06:03.425Z,14.80
2019-05-14T19:09:29.208Z,10.63
2019-05-14T19:12:53.466Z,11.03
2019-05-14T19:16:18.700Z,10.53
2019-05-14T19:19:42.529Z,12.43
2019-05-14T19:23:08.135Z,13.03
2019-05-14T19:26:36.736Z,10.43
2019-05-14T19:30:59.657Z,9.73
2019-05-14T19:34:23.233Z,13.90
2019-05-14T19:37:48.749Z,9.43
2019-05-14T19:41:12.788Z,10.27
2019-05-14T19:44:36.855Z,15.60
2019-05-14T19:48:00.731Z,11.20
2019-05-14T19:51:27.893Z,14.03
2019-05-14T19:54:51.962Z,10.70
2019-05-14T19:58:15.777Z,8.43
2019-05-14T20:01:41.805Z,8.87
2019-05-14T20:05:08.972Z,7.10
2019-05-14T20:08:32.818Z,6.83
2019-05-14T20:11:58.162Z,7.37
2019-05-14T20:15:22.003Z,6.30
2019-05-14T20:18:45.735Z,6.70
2019-05-14T20:22:09.701Z,7.00
2019-05-14T20:25:33.861Z,6.93
2019-05-14T20:28:59.309Z,6.70
2019-05-14T20:32:23.156Z,7.80
2019-05-14T20:35:48.474Z,7.43
2019-05-14T20:39:12.794Z,6.63
2019-05-14T20:42:39.362Z,7.40
2019-05-14T20:46:03.429Z,7.43
2019-05-14T20:49:28.401Z,7.87
2019-05-14T20:52:52.888Z,7.17
2019-05-14T20:56:19.064Z,7.90
2019-05-14T20:59:42.858Z,8.13
2019-05-14T21:03:08.906Z,8.57
2019-05-14T21:06:32.246Z,8.00
2019-05-14T21:09:56.291Z,8.70
2019-05-14T21:13:20.164Z,8.87
2019-05-14T21:16:44.090Z,9.03
2019-05-14T21:20:09.124Z,7.43
2019-05-14T21:23:33.262Z,9.50
2019-05-14T21:26:58.327Z,9.63
2019-05-14T21:30:22.580Z,10.13
2019-05-14T21:33:48.797Z,10.80
2019-05-14T21:37:11.934Z,13.80
2019-05-14T21:40:35.693Z,12.07
2019-05-14T21:44:01.423Z,8.33
2019-05-14T21:47:25.158Z,8.87
2019-05-14T21:50:48.992Z,7.20
2019-05-14T21:54:12.875Z,11.13
2019-05-14T21:57:38.220Z,8.30
2019-05-14T22:01:03.196Z,11.40
2019-05-14T22:04:28.994Z,9.10
2019-05-14T22:07:52.652Z,10.93
2019-05-14T22:11:18.649Z,11.63
2019-05-14T22:14:41.942Z,10.60
2019-05-14T22:18:16.522Z,15.03
2019-05-14T22:21:31.287Z,10.87
2019-05-14T22:24:55.590Z,11.33
2019-05-14T22:28:19.332Z,11.87
2019-05-14T22:31:43.058Z,10.67
2019-05-14T22:35:08.649Z,9.93
2019-05-14T22:38:32.473Z,10.80
2019-05-14T22:42:00.033Z,11.13
2019-05-14T22:45:22.140Z,11.40
2019-05-14T22:48:48.876Z,11.30
2019-05-14T22:52:11.959Z,11.57
2019-05-14T22:55:38.102Z,13.33
2019-05-14T22:59:01.246Z,13.43
2019-05-14T23:02:24.956Z,13.90
2019-05-14T23:05:48.818Z,15.10
2019-05-14T23:09:12.629Z,16.87
2019-05-14T23:12:38.617Z,16.70
2019-05-14T23:16:01.994Z,14.53
2019-05-14T23:19:25.873Z,22.07
2019-05-14T23:22:49.665Z,16.10
2019-05-14T23:26:13.563Z,15.63
2019-05-14T23:29:38.496Z,20.07
2019-05-14T23:33:02.560Z,18.73
2019-05-14T23:36:29.000Z,17.97
2019-05-14T23:39:52.195Z,22.10
2019-05-14T23:43:18.461Z,27.73
2019-05-14T23:46:41.515Z,20.63
2019-05-14T23:50:08.174Z,22.33
2019-05-14T23:53:31.579Z,20.63
2019-05-14T23:56:55.360Z,18.90
